sensor_id;sensor_type;location;lat;lon;timestamp;temperature;humidity
42715;DHT22;28351;51.480;5.706;2023-02-26T00:01:02;-0.30;99.90
42715;DHT22;28351;51.480;5.706;2023-02-26T00:03:27;-0.40;99.90
42715;DHT22;28351;51.480;5.706;2023-02-26T00:05:53;-0.30;99.90
42715;DHT22;28351;51.480;5.706;2023-02-26T00:08:19;-0.40;99.90
42715;DHT22;28351;51.480;5.706;2023-02-26T00:10:44;-0.40;99.90
42715;DHT22;28351;51.480;5.706;2023-02-26T00:13:11;-0.40;99.90
42715;DHT22;28351;51.480;5.706;2023-02-26T00:15:36;-0.40;99.90
42715;DHT22;28351;51.480;5.706;2023-02-26T00:18:07;-0.40;99.90
42715;DHT22;28351;51.480;5.706;2023-02-26T00:20:35;-0.40;99.90
42715;DHT22;28351;51.480;5.706;2023-02-26T00:23:01;-0.40;99.90
42715;DHT22;28351;51.480;5.706;2023-02-26T00:25:27;-0.40;99.90
42715;DHT22;28351;51.480;5.706;2023-02-26T00:27:52;-0.40;99.90
42715;DHT22;28351;51.480;5.706;2023-02-26T00:30:18;-0.50;99.90
42715;DHT22;28351;51.480;5.706;2023-02-26T00:32:44;-0.40;99.90
42715;DHT22;28351;51.480;5.706;2023-02-26T00:35:13;-0.20;99.90
42715;DHT22;28351;51.480;5.706;2023-02-26T00:38:14;-0.20;99.90
42715;DHT22;28351;51.480;5.706;2023-02-26T00:40:50;-0.10;99.90
42715;DHT22;28351;51.480;5.706;2023-02-26T00:43:23;-0.10;99.90
42715;DHT22;28351;51.480;5.706;2023-02-26T00:48:58;-0.20;99.90
42715;DHT22;28351;51.480;5.706;2023-02-26T00:51:42;-0.20;99.90
42715;DHT22;28351;51.480;5.706;2023-02-26T00:54:12;-0.20;99.90
42715;DHT22;28351;51.480;5.706;2023-02-26T00:56:41;-0.30;99.90
42715;DHT22;28351;51.480;5.706;2023-02-26T00:59:06;-0.30;99.90
42715;DHT22;28351;51.480;5.706;2023-02-26T01:01:35;-0.40;99.90
42715;DHT22;28351;51.480;5.706;2023-02-26T01:04:10;-0.50;99.90
42715;DHT22;28351;51.480;5.706;2023-02-26T01:10:21;-0.40;99.90
42715;DHT22;28351;51.480;5.706;2023-02-26T01:12:57;-0.40;99.90
42715;DHT22;28351;51.480;5.706;2023-02-26T01:15:38;-0.40;99.90
42715;DHT22;28351;51.480;5.706;2023-02-26T01:18:49;-0.40;99.90
42715;DHT22;28351;51.480;5.706;2023-02-26T01:21:33;-0.40;99.90
42715;DHT22;28351;51.480;5.706;2023-02-26T01:24:13;-0.40;99.90
42715;DHT22;28351;51.480;5.706;2023-02-26T01:26:42;-0.30;99.90
42715;DHT22;28351;51.480;5.706;2023-02-26T01:29:14;-0.10;99.90
42715;DHT22;28351;51.480;5.706;2023-02-26T01:34:55;0.00;99.90
42715;DHT22;28351;51.480;5.706;2023-02-26T01:49:53;-0.20;99.90
42715;DHT22;28351;51.480;5.706;2023-02-26T01:55:42;-0.30;99.90
42715;DHT22;28351;51.480;5.706;2023-02-26T01:58:29;-0.30;99.90
42715;DHT22;28351;51.480;5.706;2023-02-26T02:01:13;-0.40;99.90
42715;DHT22;28351;51.480;5.706;2023-02-26T02:03:40;-0.40;99.90
42715;DHT22;28351;51.480;5.706;2023-02-26T02:26:18;-1.00;99.90
42715;DHT22;28351;51.480;5.706;2023-02-26T02:32:48;-1.00;99.90
42715;DHT22;28351;51.480;5.706;2023-02-26T02:39:26;-1.10;99.90
42715;DHT22;28351;51.480;5.706;2023-02-26T02:48:27;-0.90;99.90
42715;DHT22;28351;51.480;5.706;2023-02-26T02:51:13;-0.90;99.90
42715;DHT22;28351;51.480;5.706;2023-02-26T03:01:25;-0.80;99.90
42715;DHT22;28351;51.480;5.706;2023-02-26T03:07:05;-0.80;99.90
42715;DHT22;28351;51.480;5.706;2023-02-26T03:09:36;-0.80;99.90
42715;DHT22;28351;51.480;5.706;2023-02-26T04:04:50;-1.00;99.90
42715;DHT22;28351;51.480;5.706;2023-02-26T04:17:11;-1.10;99.90
42715;DHT22;28351;51.480;5.706;2023-02-26T04:29:47;-1.20;99.90
42715;DHT22;28351;51.480;5.706;2023-02-26T04:38:22;-1.40;99.90
42715;DHT22;28351;51.480;5.706;2023-02-26T04:47:42;-1.50;99.90
42715;DHT22;28351;51.480;5.706;2023-02-26T04:53:30;-1.40;99.90
42715;DHT22;28351;51.480;5.706;2023-02-26T05:17:09;-1.30;99.90
42715;DHT22;28351;51.480;5.706;2023-02-26T05:26:43;-1.30;99.90
42715;DHT22;28351;51.480;5.706;2023-02-26T05:35:36;-1.30;99.90
42715;DHT22;28351;51.480;5.706;2023-02-26T05:41:24;-1.40;99.90
42715;DHT22;28351;51.480;5.706;2023-02-26T05:50:36;-1.40;99.90
42715;DHT22;28351;51.480;5.706;2023-02-26T06:16:49;-1.40;99.90
42715;DHT22;28351;51.480;5.706;2023-02-26T06:19:14;-1.40;99.90
42715;DHT22;28351;51.480;5.706;2023-02-26T06:21:40;-1.50;99.90
42715;DHT22;28351;51.480;5.706;2023-02-26T06:24:06;-1.40;99.90
42715;DHT22;28351;51.480;5.706;2023-02-26T06:26:32;-1.50;99.90
42715;DHT22;28351;51.480;5.706;2023-02-26T06:28:58;-1.50;99.90
42715;DHT22;28351;51.480;5.706;2023-02-26T06:31:23;-1.60;99.90
42715;DHT22;28351;51.480;5.706;2023-02-26T06:33:49;-1.60;99.90
42715;DHT22;28351;51.480;5.706;2023-02-26T06:36:14;-1.60;99.90
42715;DHT22;28351;51.480;5.706;2023-02-26T06:38:41;-1.70;99.90
42715;DHT22;28351;51.480;5.706;2023-02-26T06:41:15;-1.70;99.90
42715;DHT22;28351;51.480;5.706;2023-02-26T06:44:02;-1.70;99.90
42715;DHT22;28351;51.480;5.706;2023-02-26T06:52:47;-1.60;99.90
42715;DHT22;28351;51.480;5.706;2023-02-26T06:55:13;-1.60;99.90
42715;DHT22;28351;51.480;5.706;2023-02-26T06:57:38;-1.50;99.90
42715;DHT22;28351;51.480;5.706;2023-02-26T07:00:05;-1.60;99.90
42715;DHT22;28351;51.480;5.706;2023-02-26T07:02:31;-1.50;99.90
42715;DHT22;28351;51.480;5.706;2023-02-26T07:04:57;-1.50;99.90
42715;DHT22;28351;51.480;5.706;2023-02-26T07:07:23;-1.40;99.90
42715;DHT22;28351;51.480;5.706;2023-02-26T07:09:48;-1.50;99.90
42715;DHT22;28351;51.480;5.706;2023-02-26T07:12:14;-1.50;99.90
42715;DHT22;28351;51.480;5.706;2023-02-26T07:14:40;-1.40;99.90
42715;DHT22;28351;51.480;5.706;2023-02-26T07:17:07;-1.30;99.90
42715;DHT22;28351;51.480;5.706;2023-02-26T07:19:33;-1.30;99.90
42715;DHT22;28351;51.480;5.706;2023-02-26T07:21:59;-1.30;99.90
42715;DHT22;28351;51.480;5.706;2023-02-26T07:24:25;-1.20;99.90
42715;DHT22;28351;51.480;5.706;2023-02-26T07:26:50;-1.20;99.90
42715;DHT22;28351;51.480;5.706;2023-02-26T07:29:16;-1.10;99.90
42715;DHT22;28351;51.480;5.706;2023-02-26T07:34:48;-1.00;99.90
42715;DHT22;28351;51.480;5.706;2023-02-26T07:37:14;-0.80;99.90
42715;DHT22;28351;51.480;5.706;2023-02-26T07:39:44;-0.70;99.90
42715;DHT22;28351;51.480;5.706;2023-02-26T07:42:10;-0.70;99.90
42715;DHT22;28351;51.480;5.706;2023-02-26T07:44:36;-0.70;99.90
42715;DHT22;28351;51.480;5.706;2023-02-26T07:47:04;-0.60;99.90
42715;DHT22;28351;51.480;5.706;2023-02-26T07:49:30;-0.50;99.90
42715;DHT22;28351;51.480;5.706;2023-02-26T07:51:57;-0.50;99.90
42715;DHT22;28351;51.480;5.706;2023-02-26T07:54:26;-0.50;99.90
42715;DHT22;28351;51.480;5.706;2023-02-26T07:56:51;-0.40;99.90
42715;DHT22;28351;51.480;5.706;2023-02-26T07:59:17;-0.30;99.90
42715;DHT22;28351;51.480;5.706;2023-02-26T08:05:05;-0.10;99.90
42715;DHT22;28351;51.480;5.706;2023-02-26T08:07:31;0.00;99.90
42715;DHT22;28351;51.480;5.706;2023-02-26T08:09:56;0.00;99.90
42715;DHT22;28351;51.480;5.706;2023-02-26T08:12:22;0.00;99.90
42715;DHT22;28351;51.480;5.706;2023-02-26T08:14:48;0.10;99.90
42715;DHT22;28351;51.480;5.706;2023-02-26T08:17:13;0.10;99.90
42715;DHT22;28351;51.480;5.706;2023-02-26T08:19:39;0.20;99.90
42715;DHT22;28351;51.480;5.706;2023-02-26T08:22:05;0.20;99.90
42715;DHT22;28351;51.480;5.706;2023-02-26T08:24:56;0.30;99.90
42715;DHT22;28351;51.480;5.706;2023-02-26T08:30:44;0.50;99.90
42715;DHT22;28351;51.480;5.706;2023-02-26T08:33:10;0.50;99.90
42715;DHT22;28351;51.480;5.706;2023-02-26T08:35:37;0.60;99.90
42715;DHT22;28351;51.480;5.706;2023-02-26T08:38:03;0.70;99.90
42715;DHT22;28351;51.480;5.706;2023-02-26T08:40:40;0.70;99.90
42715;DHT22;28351;51.480;5.706;2023-02-26T08:43:09;0.80;99.90
42715;DHT22;28351;51.480;5.706;2023-02-26T08:45:46;0.90;99.90
42715;DHT22;28351;51.480;5.706;2023-02-26T08:48:14;1.00;99.90
42715;DHT22;28351;51.480;5.706;2023-02-26T08:50:40;1.00;99.90
42715;DHT22;28351;51.480;5.706;2023-02-26T08:53:06;1.10;99.90
42715;DHT22;28351;51.480;5.706;2023-02-26T08:55:31;1.10;99.90
42715;DHT22;28351;51.480;5.706;2023-02-26T08:57:57;1.20;99.90
42715;DHT22;28351;51.480;5.706;2023-02-26T09:00:23;1.20;99.90
42715;DHT22;28351;51.480;5.706;2023-02-26T09:02:51;1.30;99.90
42715;DHT22;28351;51.480;5.706;2023-02-26T09:05:27;1.30;99.90
42715;DHT22;28351;51.480;5.706;2023-02-26T09:07:52;1.40;99.90
42715;DHT22;28351;51.480;5.706;2023-02-26T09:10:18;1.50;99.90
42715;DHT22;28351;51.480;5.706;2023-02-26T09:12:44;1.50;99.90
42715;DHT22;28351;51.480;5.706;2023-02-26T09:15:10;1.50;99.90
42715;DHT22;28351;51.480;5.706;2023-02-26T09:17:36;1.60;99.90
42715;DHT22;28351;51.480;5.706;2023-02-26T09:20:03;1.70;99.90
42715;DHT22;28351;51.480;5.706;2023-02-26T09:22:29;1.80;99.90
42715;DHT22;28351;51.480;5.706;2023-02-26T09:24:54;1.80;99.90
42715;DHT22;28351;51.480;5.706;2023-02-26T09:27:20;1.90;99.90
42715;DHT22;28351;51.480;5.706;2023-02-26T09:29:49;1.90;99.90
42715;DHT22;28351;51.480;5.706;2023-02-26T09:32:14;2.00;99.90
42715;DHT22;28351;51.480;5.706;2023-02-26T09:34:43;2.10;99.90
42715;DHT22;28351;51.480;5.706;2023-02-26T09:37:09;2.10;99.90
42715;DHT22;28351;51.480;5.706;2023-02-26T09:39:35;2.10;99.90
42715;DHT22;28351;51.480;5.706;2023-02-26T09:42:24;2.20;99.90
42715;DHT22;28351;51.480;5.706;2023-02-26T09:45:32;2.30;99.90
42715;DHT22;28351;51.480;5.706;2023-02-26T09:48:03;2.40;99.90
42715;DHT22;28351;51.480;5.706;2023-02-26T09:50:51;2.40;99.90
42715;DHT22;28351;51.480;5.706;2023-02-26T09:53:36;2.50;99.90
42715;DHT22;28351;51.480;5.706;2023-02-26T09:56:09;2.60;99.90
42715;DHT22;28351;51.480;5.706;2023-02-26T09:58:38;2.60;99.90
42715;DHT22;28351;51.480;5.706;2023-02-26T10:06:29;3.00;99.90
42715;DHT22;28351;51.480;5.706;2023-02-26T10:09:07;3.00;99.90
42715;DHT22;28351;51.480;5.706;2023-02-26T10:12:02;3.20;99.90
42715;DHT22;28351;51.480;5.706;2023-02-26T10:17:34;3.50;99.90
42715;DHT22;28351;51.480;5.706;2023-02-26T10:23:01;3.60;99.90
42715;DHT22;28351;51.480;5.706;2023-02-26T10:25:53;3.80;99.90
42715;DHT22;28351;51.480;5.706;2023-02-26T10:37:11;4.10;99.90
42715;DHT22;28351;51.480;5.706;2023-02-26T10:42:22;3.80;99.90
42715;DHT22;28351;51.480;5.706;2023-02-26T10:50:11;3.40;99.90
42715;DHT22;28351;51.480;5.706;2023-02-26T10:52:42;3.60;99.90
42715;DHT22;28351;51.480;5.706;2023-02-26T10:57:46;3.90;99.90
42715;DHT22;28351;51.480;5.706;2023-02-26T11:00:18;3.90;99.60
42715;DHT22;28351;51.480;5.706;2023-02-26T11:02:49;4.10;99.90
42715;DHT22;28351;51.480;5.706;2023-02-26T11:05:26;4.30;99.10
42715;DHT22;28351;51.480;5.706;2023-02-26T11:08:29;4.40;98.30
42715;DHT22;28351;51.480;5.706;2023-02-26T11:10:59;4.40;98.50
42715;DHT22;28351;51.480;5.706;2023-02-26T11:13:30;4.40;98.80
42715;DHT22;28351;51.480;5.706;2023-02-26T11:16:55;4.60;98.70
42715;DHT22;28351;51.480;5.706;2023-02-26T11:22:57;4.70;97.50
42715;DHT22;28351;51.480;5.706;2023-02-26T11:26:05;4.90;97.80
42715;DHT22;28351;51.480;5.706;2023-02-26T11:28:35;4.80;98.10
42715;DHT22;28351;51.480;5.706;2023-02-26T11:31:05;5.10;97.30
42715;DHT22;28351;51.480;5.706;2023-02-26T11:33:39;5.50;97.00
42715;DHT22;28351;51.480;5.706;2023-02-26T11:36:14;5.70;96.70
42715;DHT22;28351;51.480;5.706;2023-02-26T11:38:42;6.10;96.40
42715;DHT22;28351;51.480;5.706;2023-02-26T11:41:10;6.50;95.90
42715;DHT22;28351;51.480;5.706;2023-02-26T11:43:42;6.90;95.50
42715;DHT22;28351;51.480;5.706;2023-02-26T11:46:11;7.30;95.20
42715;DHT22;28351;51.480;5.706;2023-02-26T11:48:45;7.80;94.90
42715;DHT22;28351;51.480;5.706;2023-02-26T11:51:13;7.10;94.70
42715;DHT22;28351;51.480;5.706;2023-02-26T11:53:48;7.30;95.30
42715;DHT22;28351;51.480;5.706;2023-02-26T11:56:26;7.40;95.30
42715;DHT22;28351;51.480;5.706;2023-02-26T11:58:54;8.10;93.90
42715;DHT22;28351;51.480;5.706;2023-02-26T12:01:20;9.80;92.00
42715;DHT22;28351;51.480;5.706;2023-02-26T12:03:51;11.80;90.70
42715;DHT22;28351;51.480;5.706;2023-02-26T12:06:20;12.20;90.00
42715;DHT22;28351;51.480;5.706;2023-02-26T12:08:46;11.40;89.40
42715;DHT22;28351;51.480;5.706;2023-02-26T12:31:08;8.10;91.80
42715;DHT22;28351;51.480;5.706;2023-02-26T12:44:44;8.40;91.20
42715;DHT22;28351;51.480;5.706;2023-02-26T12:47:32;8.30;90.10
42715;DHT22;28351;51.480;5.706;2023-02-26T12:58:12;9.10;86.20
42715;DHT22;28351;51.480;5.706;2023-02-26T13:12:17;14.20;81.20
42715;DHT22;28351;51.480;5.706;2023-02-26T13:20:33;15.30;80.40
42715;DHT22;28351;51.480;5.706;2023-02-26T13:23:10;14.40;80.10
42715;DHT22;28351;51.480;5.706;2023-02-26T13:25:58;14.10;80.60
42715;DHT22;28351;51.480;5.706;2023-02-26T13:28:51;13.80;81.40
42715;DHT22;28351;51.480;5.706;2023-02-26T13:31:24;14.00;81.00
42715;DHT22;28351;51.480;5.706;2023-02-26T13:33:50;14.10;80.30
42715;DHT22;28351;51.480;5.706;2023-02-26T13:36:37;14.20;78.80
42715;DHT22;28351;51.480;5.706;2023-02-26T13:53:32;14.90;80.40
42715;DHT22;28351;51.480;5.706;2023-02-26T13:58:38;15.80;80.10
42715;DHT22;28351;51.480;5.706;2023-02-26T14:01:14;14.90;78.90
42715;DHT22;28351;51.480;5.706;2023-02-26T14:03:45;13.80;81.00
42715;DHT22;28351;51.480;5.706;2023-02-26T14:06:36;15.30;79.90
42715;DHT22;28351;51.480;5.706;2023-02-26T14:09:29;15.10;80.00
42715;DHT22;28351;51.480;5.706;2023-02-26T14:14:42;15.70;80.50
42715;DHT22;28351;51.480;5.706;2023-02-26T14:19:41;15.70;79.70
42715;DHT22;28351;51.480;5.706;2023-02-26T14:24:53;16.30;77.80
42715;DHT22;28351;51.480;5.706;2023-02-26T14:35:05;15.30;77.70
42715;DHT22;28351;51.480;5.706;2023-02-26T14:37:35;14.10;78.50
42715;DHT22;28351;51.480;5.706;2023-02-26T14:40:13;13.90;77.60
42715;DHT22;28351;51.480;5.706;2023-02-26T14:43:01;14.30;77.90
42715;DHT22;28351;51.480;5.706;2023-02-26T14:45:30;14.60;78.60
42715;DHT22;28351;51.480;5.706;2023-02-26T14:48:04;14.20;77.20
42715;DHT22;28351;51.480;5.706;2023-02-26T14:53:47;14.60;79.00
42715;DHT22;28351;51.480;5.706;2023-02-26T14:59:15;12.90;79.90
42715;DHT22;28351;51.480;5.706;2023-02-26T15:01:52;11.00;82.00
42715;DHT22;28351;51.480;5.706;2023-02-26T15:04:40;9.70;85.10
42715;DHT22;28351;51.480;5.706;2023-02-26T15:11:14;8.10;89.20
42715;DHT22;28351;51.480;5.706;2023-02-26T15:13:18;7.80;90.60
42715;DHT22;28351;51.480;5.706;2023-02-26T15:16:22;7.40;90.40
42715;DHT22;28351;51.480;5.706;2023-02-26T15:24:28;6.80;90.90
42715;DHT22;28351;51.480;5.706;2023-02-26T15:26:59;6.60;90.80
42715;DHT22;28351;51.480;5.706;2023-02-26T15:29:33;6.50;91.30
42715;DHT22;28351;51.480;5.706;2023-02-26T15:32:28;6.60;91.60
42715;DHT22;28351;51.480;5.706;2023-02-26T15:35:06;6.70;91.20
42715;DHT22;28351;51.480;5.706;2023-02-26T15:37:38;7.70;90.70
42715;DHT22;28351;51.480;5.706;2023-02-26T15:40:04;9.00;90.00
42715;DHT22;28351;51.480;5.706;2023-02-26T15:42:34;9.60;86.70
42715;DHT22;28351;51.480;5.706;2023-02-26T15:45:05;8.40;88.80
42715;DHT22;28351;51.480;5.706;2023-02-26T15:47:32;7.40;90.50
42715;DHT22;28351;51.480;5.706;2023-02-26T15:50:02;6.70;91.20
42715;DHT22;28351;51.480;5.706;2023-02-26T15:52:28;6.40;91.80
42715;DHT22;28351;51.480;5.706;2023-02-26T15:54:55;6.20;92.60
42715;DHT22;28351;51.480;5.706;2023-02-26T15:57:23;6.00;92.30
42715;DHT22;28351;51.480;5.706;2023-02-26T15:59:53;6.00;92.70
42715;DHT22;28351;51.480;5.706;2023-02-26T16:02:30;6.00;92.90
42715;DHT22;28351;51.480;5.706;2023-02-26T16:04:56;5.90;93.00
42715;DHT22;28351;51.480;5.706;2023-02-26T16:07:22;5.80;93.10
42715;DHT22;28351;51.480;5.706;2023-02-26T16:09:50;5.80;93.50
42715;DHT22;28351;51.480;5.706;2023-02-26T16:14:52;5.60;93.10
42715;DHT22;28351;51.480;5.706;2023-02-26T16:17:29;5.50;93.40
42715;DHT22;28351;51.480;5.706;2023-02-26T16:19:56;5.50;93.30
42715;DHT22;28351;51.480;5.706;2023-02-26T16:22:32;5.40;93.50
42715;DHT22;28351;51.480;5.706;2023-02-26T16:25:04;5.40;93.70
42715;DHT22;28351;51.480;5.706;2023-02-26T16:27:31;5.30;93.60
42715;DHT22;28351;51.480;5.706;2023-02-26T16:29:59;5.30;93.80
42715;DHT22;28351;51.480;5.706;2023-02-26T16:32:28;5.20;93.80
42715;DHT22;28351;51.480;5.706;2023-02-26T16:34:56;5.10;94.40
42715;DHT22;28351;51.480;5.706;2023-02-26T16:48:03;4.90;95.00
42715;DHT22;28351;51.480;5.706;2023-02-26T16:50:32;4.80;95.00
42715;DHT22;28351;51.480;5.706;2023-02-26T16:53:17;4.70;95.50
42715;DHT22;28351;51.480;5.706;2023-02-26T16:55:49;4.60;96.20
42715;DHT22;28351;51.480;5.706;2023-02-26T16:58:15;4.60;96.10
42715;DHT22;28351;51.480;5.706;2023-02-26T17:00:46;4.50;96.00
42715;DHT22;28351;51.480;5.706;2023-02-26T17:03:20;4.50;96.50
42715;DHT22;28351;51.480;5.706;2023-02-26T17:06:04;4.40;96.40
42715;DHT22;28351;51.480;5.706;2023-02-26T17:08:51;4.40;96.40
42715;DHT22;28351;51.480;5.706;2023-02-26T17:11:39;4.30;96.40
42715;DHT22;28351;51.480;5.706;2023-02-26T17:14:15;4.20;96.60
42715;DHT22;28351;51.480;5.706;2023-02-26T17:16:46;4.20;96.60
42715;DHT22;28351;51.480;5.706;2023-02-26T17:19:12;4.10;96.80
42715;DHT22;28351;51.480;5.706;2023-02-26T17:21:46;4.00;97.10
42715;DHT22;28351;51.480;5.706;2023-02-26T17:24:40;4.00;97.00
42715;DHT22;28351;51.480;5.706;2023-02-26T17:27:28;3.90;97.00
42715;DHT22;28351;51.480;5.706;2023-02-26T17:29:55;3.80;97.20
42715;DHT22;28351;51.480;5.706;2023-02-26T17:32:24;3.80;97.30
42715;DHT22;28351;51.480;5.706;2023-02-26T17:34:55;3.80;97.50
42715;DHT22;28351;51.480;5.706;2023-02-26T17:37:21;3.70;97.60
42715;DHT22;28351;51.480;5.706;2023-02-26T17:39:58;3.70;97.80
42715;DHT22;28351;51.480;5.706;2023-02-26T17:42:33;3.60;98.10
42715;DHT22;28351;51.480;5.706;2023-02-26T17:44:58;3.50;98.20
42715;DHT22;28351;51.480;5.706;2023-02-26T17:47:25;3.50;98.50
42715;DHT22;28351;51.480;5.706;2023-02-26T17:49:51;3.30;98.60
42715;DHT22;28351;51.480;5.706;2023-02-26T17:52:18;3.30;98.80
42715;DHT22;28351;51.480;5.706;2023-02-26T17:54:44;3.20;99.20
42715;DHT22;28351;51.480;5.706;2023-02-26T17:57:19;3.10;99.10
42715;DHT22;28351;51.480;5.706;2023-02-26T17:59:45;3.10;99.50
42715;DHT22;28351;51.480;5.706;2023-02-26T18:02:21;3.00;99.40
42715;DHT22;28351;51.480;5.706;2023-02-26T18:04:47;2.90;99.60
42715;DHT22;28351;51.480;5.706;2023-02-26T18:07:15;2.80;99.90
42715;DHT22;28351;51.480;5.706;2023-02-26T18:09:44;2.80;99.90
42715;DHT22;28351;51.480;5.706;2023-02-26T18:12:16;2.70;99.90
42715;DHT22;28351;51.480;5.706;2023-02-26T18:14:45;2.60;99.90
42715;DHT22;28351;51.480;5.706;2023-02-26T18:17:23;2.50;99.90
42715;DHT22;28351;51.480;5.706;2023-02-26T18:19:49;2.60;99.90
42715;DHT22;28351;51.480;5.706;2023-02-26T18:22:20;2.70;99.90
42715;DHT22;28351;51.480;5.706;2023-02-26T18:24:50;2.70;99.90
42715;DHT22;28351;51.480;5.706;2023-02-26T18:27:18;2.70;99.90
42715;DHT22;28351;51.480;5.706;2023-02-26T18:29:45;2.60;99.90
42715;DHT22;28351;51.480;5.706;2023-02-26T18:32:16;2.60;99.90
42715;DHT22;28351;51.480;5.706;2023-02-26T18:34:42;2.50;99.90
42715;DHT22;28351;51.480;5.706;2023-02-26T18:37:19;2.40;99.90
42715;DHT22;28351;51.480;5.706;2023-02-26T18:39:46;2.40;99.90
42715;DHT22;28351;51.480;5.706;2023-02-26T18:42:29;2.40;99.90
42715;DHT22;28351;51.480;5.706;2023-02-26T18:45:02;2.30;99.90
42715;DHT22;28351;51.480;5.706;2023-02-26T18:47:28;2.30;99.90
42715;DHT22;28351;51.480;5.706;2023-02-26T18:49:57;2.30;99.90
42715;DHT22;28351;51.480;5.706;2023-02-26T18:52:23;2.20;99.90
42715;DHT22;28351;51.480;5.706;2023-02-26T18:54:48;2.10;99.90
42715;DHT22;28351;51.480;5.706;2023-02-26T18:57:16;2.20;99.90
42715;DHT22;28351;51.480;5.706;2023-02-26T18:59:42;2.20;99.90
42715;DHT22;28351;51.480;5.706;2023-02-26T19:02:10;2.10;99.90
42715;DHT22;28351;51.480;5.706;2023-02-26T19:04:38;2.10;99.90
42715;DHT22;28351;51.480;5.706;2023-02-26T19:07:07;2.10;99.90
42715;DHT22;28351;51.480;5.706;2023-02-26T19:09:33;2.10;99.90
42715;DHT22;28351;51.480;5.706;2023-02-26T19:12:00;2.00;99.90
42715;DHT22;28351;51.480;5.706;2023-02-26T19:14:26;2.00;99.90
42715;DHT22;28351;51.480;5.706;2023-02-26T19:16:52;2.10;99.90
42715;DHT22;28351;51.480;5.706;2023-02-26T19:19:20;2.10;99.90
42715;DHT22;28351;51.480;5.706;2023-02-26T19:21:47;2.10;99.90
42715;DHT22;28351;51.480;5.706;2023-02-26T19:24:13;2.20;99.90
42715;DHT22;28351;51.480;5.706;2023-02-26T19:26:42;2.20;99.90
42715;DHT22;28351;51.480;5.706;2023-02-26T19:29:16;2.30;99.90
42715;DHT22;28351;51.480;5.706;2023-02-26T19:31:42;2.30;99.90
42715;DHT22;28351;51.480;5.706;2023-02-26T19:37:27;2.30;99.90
42715;DHT22;28351;51.480;5.706;2023-02-26T19:39:56;2.20;99.90
42715;DHT22;28351;51.480;5.706;2023-02-26T19:42:21;2.20;99.90
42715;DHT22;28351;51.480;5.706;2023-02-26T19:44:48;2.20;99.90
42715;DHT22;28351;51.480;5.706;2023-02-26T19:47:14;2.20;99.90
42715;DHT22;28351;51.480;5.706;2023-02-26T19:49:39;2.10;99.90
42715;DHT22;28351;51.480;5.706;2023-02-26T19:52:05;2.10;99.90
42715;DHT22;28351;51.480;5.706;2023-02-26T19:54:33;2.00;99.90
42715;DHT22;28351;51.480;5.706;2023-02-26T19:56:59;2.00;99.90
42715;DHT22;28351;51.480;5.706;2023-02-26T19:59:24;2.00;99.90
42715;DHT22;28351;51.480;5.706;2023-02-26T20:01:50;2.00;99.90
42715;DHT22;28351;51.480;5.706;2023-02-26T20:04:17;1.90;99.90
42715;DHT22;28351;51.480;5.706;2023-02-26T20:06:43;1.90;99.90
42715;DHT22;28351;51.480;5.706;2023-02-26T20:09:09;1.90;99.90
42715;DHT22;28351;51.480;5.706;2023-02-26T20:11:36;1.90;99.90
42715;DHT22;28351;51.480;5.706;2023-02-26T20:14:03;1.90;99.90
42715;DHT22;28351;51.480;5.706;2023-02-26T20:16:29;1.80;99.90
42715;DHT22;28351;51.480;5.706;2023-02-26T20:18:55;1.80;99.90
42715;DHT22;28351;51.480;5.706;2023-02-26T20:21:24;1.80;99.90
42715;DHT22;28351;51.480;5.706;2023-02-26T20:23:52;1.80;99.90
42715;DHT22;28351;51.480;5.706;2023-02-26T20:26:18;1.90;99.90
42715;DHT22;28351;51.480;5.706;2023-02-26T20:28:44;1.80;99.90
42715;DHT22;28351;51.480;5.706;2023-02-26T20:31:13;1.80;99.90
42715;DHT22;28351;51.480;5.706;2023-02-26T20:33:39;1.80;99.90
42715;DHT22;28351;51.480;5.706;2023-02-26T20:36:06;1.80;99.90
42715;DHT22;28351;51.480;5.706;2023-02-26T20:38:31;1.80;99.90
42715;DHT22;28351;51.480;5.706;2023-02-26T20:40:57;1.80;99.90
42715;DHT22;28351;51.480;5.706;2023-02-26T20:43:23;1.80;99.90
42715;DHT22;28351;51.480;5.706;2023-02-26T20:45:52;1.70;99.90
42715;DHT22;28351;51.480;5.706;2023-02-26T20:48:22;1.70;99.90
42715;DHT22;28351;51.480;5.706;2023-02-26T20:53:45;1.60;99.90
42715;DHT22;28351;51.480;5.706;2023-02-26T20:56:31;1.60;99.90
42715;DHT22;28351;51.480;5.706;2023-02-26T20:58:57;1.50;99.90
42715;DHT22;28351;51.480;5.706;2023-02-26T21:01:22;1.50;99.90
42715;DHT22;28351;51.480;5.706;2023-02-26T21:03:48;1.40;99.90
42715;DHT22;28351;51.480;5.706;2023-02-26T21:06:25;1.40;99.90
42715;DHT22;28351;51.480;5.706;2023-02-26T21:08:51;1.30;99.90
42715;DHT22;28351;51.480;5.706;2023-02-26T21:11:19;1.30;99.90
42715;DHT22;28351;51.480;5.706;2023-02-26T21:13:45;1.30;99.90
42715;DHT22;28351;51.480;5.706;2023-02-26T21:16:11;1.20;99.90
42715;DHT22;28351;51.480;5.706;2023-02-26T21:18:36;1.20;99.90
42715;DHT22;28351;51.480;5.706;2023-02-26T21:21:05;1.20;99.90
42715;DHT22;28351;51.480;5.706;2023-02-26T21:23:31;1.10;99.90
42715;DHT22;28351;51.480;5.706;2023-02-26T21:25:56;1.10;99.90
42715;DHT22;28351;51.480;5.706;2023-02-26T21:28:22;1.00;99.90
42715;DHT22;28351;51.480;5.706;2023-02-26T21:30:51;0.90;99.90
42715;DHT22;28351;51.480;5.706;2023-02-26T21:33:18;0.90;99.90
42715;DHT22;28351;51.480;5.706;2023-02-26T21:35:43;0.80;99.90
42715;DHT22;28351;51.480;5.706;2023-02-26T21:38:09;0.90;99.90
42715;DHT22;28351;51.480;5.706;2023-02-26T21:40:35;0.90;99.90
42715;DHT22;28351;51.480;5.706;2023-02-26T21:43:01;0.80;99.90
42715;DHT22;28351;51.480;5.706;2023-02-26T21:45:29;0.80;99.90
42715;DHT22;28351;51.480;5.706;2023-02-26T21:47:55;0.80;99.90
42715;DHT22;28351;51.480;5.706;2023-02-26T21:50:20;0.80;99.90
42715;DHT22;28351;51.480;5.706;2023-02-26T21:52:49;0.80;99.90
42715;DHT22;28351;51.480;5.706;2023-02-26T21:55:15;0.70;99.90
42715;DHT22;28351;51.480;5.706;2023-02-26T21:57:43;0.70;99.90
42715;DHT22;28351;51.480;5.706;2023-02-26T22:00:09;0.70;99.90
42715;DHT22;28351;51.480;5.706;2023-02-26T22:02:36;0.70;99.90
42715;DHT22;28351;51.480;5.706;2023-02-26T22:05:02;0.70;99.90
42715;DHT22;28351;51.480;5.706;2023-02-26T22:07:28;0.60;99.90
42715;DHT22;28351;51.480;5.706;2023-02-26T22:09:59;0.60;99.90
42715;DHT22;28351;51.480;5.706;2023-02-26T22:12:25;0.50;99.90
42715;DHT22;28351;51.480;5.706;2023-02-26T22:14:51;0.40;99.90
42715;DHT22;28351;51.480;5.706;2023-02-26T22:17:17;0.30;99.90
42715;DHT22;28351;51.480;5.706;2023-02-26T22:19:49;0.30;99.90
42715;DHT22;28351;51.480;5.706;2023-02-26T22:22:14;0.40;99.90
42715;DHT22;28351;51.480;5.706;2023-02-26T22:24:42;0.30;99.90
42715;DHT22;28351;51.480;5.706;2023-02-26T22:27:11;0.30;99.90
42715;DHT22;28351;51.480;5.706;2023-02-26T22:29:36;0.30;99.90
42715;DHT22;28351;51.480;5.706;2023-02-26T22:32:03;0.20;99.90
42715;DHT22;28351;51.480;5.706;2023-02-26T22:34:29;0.10;99.90
42715;DHT22;28351;51.480;5.706;2023-02-26T22:36:57;0.10;99.90
42715;DHT22;28351;51.480;5.706;2023-02-26T22:39:23;0.00;99.90
42715;DHT22;28351;51.480;5.706;2023-02-26T22:41:49;0.00;99.90
42715;DHT22;28351;51.480;5.706;2023-02-26T22:44:14;-0.10;99.90